Lawson Army Air Field (Fort Benning) Fort Benning(Columbus) US
ICAO: KLSF
IATA: LSF
Category: Medium
Scheduled Services: No

Elevation: 232 ft
TransAlt. 18000 ft.

Airport Communications:
ATLANTA APP/DEP:125.5
ATIS:134.375
CLNC DEL:121.7
GND:121.05
PMSV METRO:34.32
PTD/BASE OPS:134.1
TWR:119.05

KLSF Zoom In..

Runways:

(A) RW 15 length 10004 ft width 150 ft
---- / hdg 147

(B) RW 33 length 10004 ft width 150 ft
ILS 110.70 / hdg 327

Location; KLSF
Day. 23 / Time. 07.56 Zulu
* Altimeter: 29.75
* Temperature: 21° c. 69.8°f.
* Wind from: 000° Speed 00 kn.
Dewpoint: 21° c.
Visibility: 6 Statute Miles.
Clouds: Few 7500 ft.
Conditions: Mist.

KLSF 230756Z AUTO 00000KT 6SM BR FEW075 21/21 A2975 RMK AO2 SLP077 T02100210 $


Wind - Calm.

 
 
jpsmedia.com for Web Design worldairports.se 2018   terms of use